South Reading, Vermont
Current Conditions -  °F | °C
As of 1:43 PM on Thursday 23 Oct 2014 (Local Time) from KVSF Reporting Station
Light Rain Light Rain  
Wind Chill: 43°   Ceiling: 1800
Heat Index: 47°   Visibility: 2.5mi
Dew Point: 44°   Wind: 8mph
Humidity: 90%   Direction: 30°NNE
Pressure: 29.78"   Gusts: NA
Location:  43.4162°N, 72.6048°W
Report Text: KVSF 231743Z AUTO 03007KT 330V080 2 1/2SM -RA BR OVC018 08/07 A2978 RMK AO2 VIS 1 3/4V4 P0001 T00830067
Loading
Personal Weather Stations






























Interactive Weather Map
Tropical Storm Tracking
New forecast layout! Learn more

10-Day Weather Forecast

Advertisements
Track Severe Weather on mobile